createdAt,value
2018-11-13T00:05:28.535Z,41.37
2018-11-13T00:15:32.794Z,39.17
2018-11-13T00:25:37.940Z,39.87
2018-11-13T00:35:42.286Z,39.50
2018-11-13T00:45:46.570Z,41.43
2018-11-13T00:55:50.851Z,39.17
2018-11-13T01:05:55.176Z,36.63
2018-11-13T01:15:59.350Z,40.13
2018-11-13T01:26:03.625Z,36.57
2018-11-13T01:36:07.844Z,34.97
2018-11-13T01:46:12.222Z,35.13
2018-11-13T01:56:16.442Z,34.00
2018-11-13T02:06:20.740Z,32.10
2018-11-13T02:16:25.094Z,33.80
2018-11-13T02:26:30.278Z,34.60
2018-11-13T02:36:34.530Z,34.97
2018-11-13T02:46:39.153Z,32.43
2018-11-13T02:56:43.415Z,33.80
2018-11-13T03:06:47.661Z,32.93
2018-11-13T03:16:51.901Z,32.00
2018-11-13T03:26:56.188Z,34.00
2018-11-13T03:37:00.558Z,34.10
2018-11-13T03:47:04.845Z,31.80
2018-11-13T03:57:09.094Z,34.00
2018-11-13T04:07:13.362Z,33.07
2018-11-13T04:17:17.625Z,34.03
2018-11-13T04:27:21.870Z,34.27
2018-11-13T04:37:26.105Z,36.07
2018-11-13T04:47:30.321Z,33.93
2018-11-13T04:57:34.614Z,31.40
2018-11-13T05:07:38.931Z,33.03
2018-11-13T05:17:43.846Z,32.77
2018-11-13T05:27:48.233Z,29.60
2018-11-13T05:37:52.475Z,32.47
2018-11-13T05:47:56.738Z,32.80
2018-11-13T05:58:00.965Z,32.40
2018-11-13T06:08:05.433Z,32.20
2018-11-13T06:18:09.763Z,31.87
2018-11-13T06:28:19.457Z,31.10
2018-11-13T06:38:24.222Z,30.17
2018-11-13T06:48:28.486Z,33.57
2018-11-13T06:58:32.761Z,29.03
2018-11-13T07:08:37.050Z,31.33
2018-11-13T07:18:41.299Z,28.73
2018-11-13T07:28:45.553Z,29.03
2018-11-13T07:38:49.793Z,30.97
2018-11-13T07:48:54.094Z,28.80
2018-11-13T07:58:58.343Z,30.37
2018-11-13T08:09:02.693Z,28.37
2018-11-13T08:19:07.037Z,28.93
2018-11-13T08:29:11.320Z,29.67
2018-11-13T08:39:15.570Z,28.70
2018-11-13T08:49:19.873Z,27.30
2018-11-13T08:59:24.206Z,27.90
2018-11-13T09:09:28.394Z,26.27
2018-11-13T09:19:32.830Z,25.17
2018-11-13T09:29:36.917Z,26.50
2018-11-13T09:39:41.195Z,26.20
2018-11-13T09:49:45.419Z,27.70
2018-11-13T09:59:49.705Z,28.03
2018-11-13T10:09:53.925Z,28.00
2018-11-13T10:19:58.182Z,27.20
2018-11-13T10:30:02.453Z,26.40
2018-11-13T10:40:07.558Z,26.60
2018-11-13T10:50:13.435Z,27.27
2018-11-13T11:00:22.909Z,23.73
2018-11-13T11:10:27.361Z,25.13
2018-11-13T11:20:31.624Z,26.10
2018-11-13T11:30:35.964Z,24.80
2018-11-13T11:40:40.263Z,26.33
2018-11-13T11:50:44.521Z,26.10
2018-11-13T12:00:48.860Z,25.47
2018-11-13T12:10:53.134Z,27.90
2018-11-13T12:20:57.390Z,26.67
2018-11-13T12:31:02.710Z,28.07
2018-11-13T12:41:06.982Z,28.27
2018-11-13T12:51:15.401Z,30.50
2018-11-13T13:01:19.702Z,31.00
2018-11-13T13:11:23.979Z,31.37
2018-11-13T13:21:28.282Z,32.07
2018-11-13T13:31:32.568Z,29.60
2018-11-13T13:41:36.883Z,32.17
2018-11-13T13:51:41.148Z,29.23
2018-11-13T14:01:45.443Z,30.43
2018-11-13T14:11:49.742Z,29.43
2018-11-13T14:21:54.010Z,29.43
2018-11-13T14:31:58.314Z,30.97
2018-11-13T14:42:02.632Z,32.53
2018-11-13T14:52:07.146Z,31.40
2018-11-13T15:02:11.426Z,30.83
2018-11-13T15:12:15.727Z,32.00
2018-11-13T15:22:20.047Z,33.27
2018-11-13T15:32:24.383Z,31.27
2018-11-13T15:42:28.678Z,35.37
2018-11-13T15:52:33.042Z,32.23
2018-11-13T16:02:37.226Z,32.27
2018-11-13T16:12:41.624Z,33.53
2018-11-13T16:22:45.979Z,33.53
2018-11-13T16:32:50.897Z,34.30
2018-11-13T16:42:55.266Z,33.27
2018-11-13T16:52:59.981Z,34.47
2018-11-13T17:03:04.635Z,34.77
2018-11-13T17:13:09.057Z,35.93
2018-11-13T17:23:13.378Z,35.63
2018-11-13T17:33:18.050Z,35.50
2018-11-13T17:43:22.390Z,35.17
2018-11-13T17:53:26.762Z,37.17
2018-11-13T18:03:31.928Z,55.60
2018-11-13T18:13:36.452Z,37.97
2018-11-13T18:23:41.135Z,26.33
2018-11-13T18:33:45.634Z,21.73
2018-11-13T18:43:50.233Z,18.83
2018-11-13T18:53:54.961Z,36.63
2018-11-13T19:03:59.578Z,19.37
2018-11-13T19:14:04.274Z,19.00
2018-11-13T19:24:08.595Z,16.00
2018-11-13T19:34:12.984Z,16.13
2018-11-13T19:44:17.412Z,17.83
2018-11-13T19:54:21.838Z,17.50
2018-11-13T20:04:26.432Z,16.63
2018-11-13T20:14:30.789Z,17.30
2018-11-13T20:24:35.595Z,16.30
2018-11-13T20:34:40.746Z,20.20
2018-11-13T20:44:45.224Z,23.30
2018-11-13T20:54:49.702Z,19.20
2018-11-13T21:04:54.370Z,14.53
2018-11-13T21:14:58.894Z,15.30
2018-11-13T21:25:03.867Z,14.97
2018-11-13T21:35:09.146Z,14.50
2018-11-13T21:45:14.475Z,13.80
2018-11-13T21:55:20.145Z,12.90
2018-11-13T22:05:25.368Z,13.27
2018-11-13T22:15:30.506Z,12.63
2018-11-13T22:25:35.165Z,13.07
2018-11-13T22:35:39.682Z,10.53
2018-11-13T22:45:44.497Z,12.43
2018-11-13T22:55:48.860Z,10.80
2018-11-13T23:05:53.359Z,10.80
2018-11-13T23:15:58.061Z,10.77
2018-11-13T23:26:02.503Z,11.20
2018-11-13T23:36:07.159Z,11.67
2018-11-13T23:46:12.417Z,11.97
2018-11-13T23:56:16.950Z,12.77
